Latest Weather Observations for White Cliffs AWS

IDN60801

Issued at 10:35 pm EST Thursday 24 July 2014 (issued every 30 minutes, with the page automatically refreshed every 10 minutes)

About weather observations | Map of weather stations | Latest weather observations for NSW | Other Formats
Station Details ID: 046129 Name: WHITE CLIFFS AWS Lat: -30.85 Lon: 143.07 Height: 158.0 m
Data from the previous 72 hours. | See also: Recent months at White Cliffs AWS
Date/Time
EST
Temp
°C
App
Temp
°C
Dew
Point
Rel
Hum
%
Delta-T
°C
Wind Press
QNH
hPa
Press
MSL
hPa
Rain
since 9 am
mm
Dir
 
Spd
km/h
Gust
km/h
Spd
kts
Gust
kts
24/10:30pm 10.6 7.5 1.4 53 3.9 WSW 7 11 4 6 1017.0 - 0.0
24/10:00pm 11.4 8.0 1.6 51 4.2 W 9 11 5 6 1016.9 1017.0 0.0
24/09:30pm 11.4 8.0 1.6 51 4.2 WNW 9 11 5 6 1016.8 - 0.0
24/09:00pm 12.1 8.2 1.4 48 4.6 WNW 11 11 6 6 1016.6 1016.7 0.0
24/08:30pm 13.1 9.4 2.1 47 4.8 NW 11 13 6 7 1016.3 - 0.0
24/08:00pm 13.7 9.9 2.0 45 5.1 WNW 11 13 6 7 1016.0 1016.1 0.0
24/07:30pm 15.1 10.3 2.6 43 5.6 W 17 19 9 10 1015.6 - 0.0
24/07:00pm 14.6 9.7 2.2 43 5.5 WNW 17 17 9 9 1015.3 1015.4 0.0
24/06:30pm 15.7 11.2 2.2 40 6.1 NW 15 17 8 9 1014.8 - 0.0
24/06:00pm 18.0 13.2 2.7 36 7.1 NW 17 19 9 10 1014.3 1014.4 0.0
24/05:30pm 19.9 14.2 2.7 32 8.1 NW 22 32 12 17 1014.1 - 0.0
24/05:00pm 20.7 13.9 3.0 31 8.4 WNW 28 35 15 19 1013.7 1013.8 0.0
24/04:30pm 21.4 14.5 2.6 29 8.9 NW 28 35 15 19 1013.5 - 0.0
24/04:00pm 21.8 14.1 2.5 28 9.2 NW 32 41 17 22 1013.3 1013.4 0.0
24/03:30pm 21.6 14.0 2.8 29 9.0 NW 32 39 17 21 1013.0 - 0.0
24/03:00pm 21.5 13.8 2.2 28 9.1 NW 32 39 17 21 1012.8 1012.9 0.0
24/02:30pm 21.4 13.6 1.6 27 9.2 NNW 32 41 17 22 1012.8 - 0.0
24/02:00pm 21.6 13.7 1.3 26 9.4 NW 32 43 17 23 1013.0 1013.1 0.0
24/01:30pm 20.8 13.4 1.6 28 8.9 NW 30 39 16 21 1013.3 - 0.0
24/01:00pm 20.7 13.6 1.6 28 8.8 NW 28 37 15 20 1013.5 1013.6 0.0
24/12:30pm 19.9 12.3 2.7 32 8.1 NW 32 39 17 21 1014.1 - 0.0
24/12:00pm 19.7 12.1 2.6 32 8.0 NW 32 43 17 23 1014.5 1014.6 0.0
24/11:30am 19.2 13.1 3.0 34 7.6 NNW 24 32 13 17 1014.8 - 0.0
24/11:00am 18.1 11.9 2.4 35 7.2 N 24 30 13 16 1014.9 1015.0 0.0
24/10:30am 16.9 10.6 1.4 35 6.9 NNW 24 32 13 17 1015.1 - 0.0
24/10:00am 15.9 9.2 1.6 38 6.3 N 26 33 14 18 1015.2 1015.3 0.0
24/09:30am 14.9 7.9 1.8 41 5.8 NNW 28 35 15 19 1015.1 - 0.0
24/09:00am 13.8 7.3 2.4 46 5.1 N 26 32 14 17 1014.7 1014.8 0.0
24/08:30am 12.8 7.1 2.6 50 4.5 N 22 30 12 16 1014.4 - 0.0
24/08:00am 10.9 5.5 2.7 57 3.6 N 20 24 11 13 1014.3 1014.4 0.0
24/07:30am 11.1 6.3 2.7 56 3.7 N 17 20 9 11 1014.3 - 0.0
24/07:00am 11.5 6.4 3.0 56 3.7 N 19 22 10 12 1014.2 1014.3 0.0
24/06:30am 11.6 6.6 3.4 57 3.6 N 19 20 10 11 1014.1 - 0.0
24/06:00am 11.5 6.9 3.5 58 3.6 N 17 20 9 11 1013.9 1014.0 0.0
24/05:30am 11.6 7.2 4.6 62 3.2 NNE 17 20 9 11 1013.5 - 0.0
24/05:00am 10.5 6.9 5.1 69 2.5 NE 13 15 7 8 1013.2 1013.3 0.0
24/04:30am 10.0 6.9 5.4 73 2.1 E 11 13 6 7 1013.2 - 0.0
24/04:00am 10.3 7.2 5.7 73 2.1 E 11 13 6 7 1013.4 1013.5 0.0
24/03:30am 11.4 8.8 5.9 69 2.6 NNE 9 11 5 6 1013.6 - 0.0
24/03:00am 12.1 9.8 5.9 66 2.9 NW 7 13 4 7 1014.0 1014.1 0.0
24/02:30am 12.3 8.6 4.5 59 3.6 WNW 13 13 7 7 1014.6 - 0.0
24/02:00am 13.7 10.4 4.6 54 4.2 N 11 17 6 9 1014.3 1014.4 0.0
24/01:30am 13.5 9.5 4.9 56 4.0 NNE 15 20 8 11 1013.9 - 0.0
24/01:00am 14.3 9.4 5.1 54 4.3 N 20 26 11 14 1014.0 1014.1 0.0
24/12:30am 14.7 9.2 4.1 49 4.9 NNE 22 30 12 16 1014.0 - 0.0
24/12:00am 14.7 9.6 4.1 49 4.9 NE 20 26 11 14 1014.4 1014.5 0.0
 
Date/Time
EST
Temp
°C
App
Temp
°C
Dew
Point
Rel
Hum
%
Delta-T
°C
Wind Press
QNH
hPa
Press
MSL
hPa
Rain
since 9 am
mm
Dir
 
Spd
km/h
Gust
km/h
Spd
kts
Gust
kts
23/11:30pm 14.7 9.6 4.1 49 4.9 NNE 20 26 11 14 1014.8 - 0.0
23/11:00pm 14.7 9.0 2.9 45 5.3 NE 22 28 12 15 1015.0 1015.1 0.0
23/10:30pm 14.7 9.4 3.2 46 5.2 NE 20 26 11 14 1015.4 - 0.0
23/10:00pm 14.1 9.0 3.3 48 4.9 NE 19 22 10 12 1015.5 1015.6 0.0
23/09:30pm 12.2 7.8 2.6 52 4.2 ENE 15 17 8 9 1016.0 - 0.0
23/09:00pm 12.7 8.0 3.1 52 4.3 ENE 17 17 9 9 1016.2 1016.3 0.0
23/08:30pm 13.0 8.7 3.1 51 4.4 ENE 15 17 8 9 1016.3 - 0.0
23/08:00pm 13.2 9.2 2.7 49 4.7 ENE 13 15 7 8 1016.5 1016.5 0.0
23/07:30pm 14.3 10.4 3.2 47 5.0 NE 13 15 7 8 1016.8 - 0.0
23/07:00pm 14.1 10.1 3.0 47 5.0 NE 13 17 7 9 1016.7 1016.8 0.0
23/06:30pm 15.2 11.2 3.0 44 5.6 NE 13 15 7 8 1016.6 - 0.0
23/06:00pm 16.7 12.4 3.4 41 6.2 ENE 15 19 8 10 1016.6 1016.7 0.0
23/05:30pm 17.7 12.1 3.6 39 6.6 NE 22 28 12 15 1016.5 - 0.0
23/05:00pm 18.3 13.1 3.8 38 6.9 NE 20 26 11 14 1016.3 1016.4 0.0
23/04:30pm 18.2 13.1 3.3 37 7.0 NE 19 24 10 13 1016.6 - 0.0
23/04:00pm 18.4 13.4 3.5 37 7.0 NE 19 24 10 13 1017.0 1017.1 0.0
23/03:30pm 18.7 13.6 3.3 36 7.2 NNE 19 24 10 13 1016.9 - 0.0
23/03:00pm 18.9 14.3 3.9 37 7.1 NE 17 22 9 12 1017.0 1017.1 0.0
23/02:30pm 18.5 13.9 3.9 38 6.9 NE 17 24 9 13 1017.1 - 0.0
23/02:00pm 19.1 14.3 4.5 38 7.0 NNE 19 28 10 15 1017.3 1017.4 0.0
23/01:30pm 17.7 11.9 4.3 41 6.4 NNE 24 32 13 17 1017.7 - 0.0
23/01:00pm 18.1 13.1 4.7 41 6.4 NNE 20 26 11 14 1018.5 1018.6 0.0
23/12:30pm 17.7 12.4 5.0 43 6.1 NE 22 26 12 14 1019.1 - 0.0
23/12:00pm 17.1 11.8 4.8 44 5.9 NNE 22 28 12 15 1019.9 1020.0 0.0
23/11:30am 16.6 10.9 4.9 46 5.6 NNE 24 30 13 16 1020.5 - 0.0
23/11:00am 15.8 10.3 6.0 52 4.8 NNE 24 32 13 17 1021.0 1021.1 0.0
23/10:30am 14.5 9.4 6.1 57 4.1 NNE 22 35 12 19 1021.4 - 0.0
23/10:00am 14.2 8.0 6.1 58 3.9 NNE 28 35 15 19 1021.5 1021.6 0.0
23/09:30am 13.4 8.6 5.6 59 3.7 NNE 20 24 11 13 1021.4 - 0.0
23/09:00am 10.5 5.3 2.6 58 3.4 E 19 24 10 13 1020.4 1020.5 0.0
23/08:30am 8.9 4.0 2.3 63 2.8 E 17 24 9 13 1020.1 - 0.0
23/08:00am 8.8 3.6 2.6 65 2.6 ESE 19 22 10 12 1020.6 1020.7 0.0
23/07:30am 7.7 3.6 2.2 68 2.3 ESE 13 17 7 9 1020.8 - 0.0
23/07:00am 7.6 4.6 1.7 66 2.4 ESE 7 7 4 4 1021.2 1021.3 0.0
23/06:30am 7.2 5.4 1.1 65 2.5 CALM 0 6 0 3 1021.4 - 0.0
23/06:00am 7.4 4.2 0.8 63 2.6 S 7 9 4 5 1020.9 1021.0 0.0
23/05:30am 7.3 4.7 1.0 64 2.5 SSE 4 6 2 3 1020.8 - 0.0
23/05:00am 7.8 4.8 1.9 66 2.4 SE 7 9 4 5 1020.6 1020.7 0.0
23/04:30am 7.6 4.1 1.5 65 2.5 SSE 9 11 5 6 1020.7 - 0.0
23/04:00am 8.1 5.0 1.3 62 2.8 SE 7 9 4 5 1021.0 1021.1 0.0
23/03:30am 8.1 5.1 1.0 61 2.9 SSE 6 7 3 4 1021.1 - 0.0
23/03:00am 8.2 4.7 1.1 61 2.9 S 9 11 5 6 1021.1 1021.2 0.0
23/02:30am 8.0 4.8 1.0 61 2.8 SE 7 9 4 5 1021.3 - 0.0
23/02:00am 8.0 4.0 0.7 60 2.9 SSE 11 11 6 6 1021.4 1021.5 0.0
23/01:30am 8.0 4.4 0.5 59 3.0 SSE 9 11 5 6 1021.5 - 0.0
23/01:00am 8.5 3.7 0.5 57 3.2 S 15 15 8 8 1021.7 1021.8 0.0
23/12:30am 9.1 4.0 0.6 55 3.5 S 17 19 9 10 1021.8 - 0.0
23/12:00am 9.1 3.9 0.0 53 3.6 S 17 17 9 9 1022.2 1022.4 0.0
 
Date/Time
EST
Temp
°C
App
Temp
°C
Dew
Point
Rel
Hum
%
Delta-T
°C
Wind Press
QNH
hPa
Press
MSL
hPa
Rain
since 9 am
mm
Dir
 
Spd
km/h
Gust
km/h
Spd
kts
Gust
kts
22/11:30pm 8.9 4.4 -0.4 52 3.7 S 13 15 7 8 1022.4 - 0.0
22/11:00pm 9.4 4.9 -0.2 51 3.8 S 13 15 7 8 1022.2 1022.4 0.0
22/10:30pm 9.6 5.1 -0.6 49 4.1 S 13 15 7 8 1022.1 - 0.0
22/10:00pm 11.0 6.2 0.1 47 4.5 S 15 17 8 9 1022.3 1022.5 0.0
22/09:30pm 11.7 6.9 0.2 45 4.8 S 15 17 8 9 1022.3 - 0.0
22/09:00pm 11.4 6.5 -0.4 44 4.8 S 15 17 8 9 1022.4 1022.6 0.0
22/08:30pm 12.0 7.5 -0.5 42 5.1 S 13 15 7 8 1022.7 - 0.0
22/08:00pm 12.6 7.6 -1.0 39 5.5 S 15 17 8 9 1022.4 1022.6 0.0
22/07:30pm 12.8 7.9 -0.8 39 5.6 SSE 15 15 8 8 1022.2 - 0.0
22/07:00pm 13.1 8.5 -1.2 37 5.8 SSE 13 15 7 8 1022.1 1022.3 0.0
22/06:30pm 14.1 9.9 -1.1 35 6.3 SSE 11 11 6 6 1021.9 - 0.0
22/06:00pm 15.6 11.4 -0.6 33 6.8 SE 11 13 6 7 1021.7 1021.8 0.0
22/05:30pm 17.0 12.1 -0.2 31 7.4 SSE 15 19 8 10 1021.2 - 0.0
22/05:00pm 17.8 13.0 0.0 30 7.7 S 15 19 8 10 1021.1 1021.2 0.0
22/04:30pm 18.1 13.6 -0.2 29 8.0 SSE 13 19 7 10 1021.3 - 0.0
22/04:00pm 18.4 14.3 0.1 29 8.0 SSE 11 17 6 9 1021.7 1021.8 0.0
22/03:30pm 18.3 13.5 0.0 29 8.0 S 15 20 8 11 1021.8 - 0.0
22/03:00pm 18.2 13.9 0.8 31 7.7 S 13 20 7 11 1021.8 1022.0 0.0
22/02:30pm 18.0 13.6 0.2 30 7.8 SSE 13 20 7 11 1021.6 - 0.0
22/02:00pm 18.3 14.4 1.3 32 7.6 SE 11 20 6 11 1021.7 1021.8 0.0
22/01:30pm 18.2 12.7 0.4 30 7.9 S 19 24 10 13 1021.9 - 0.0
22/01:00pm 17.4 12.7 1.0 33 7.3 SSE 15 24 8 13 1022.7 1022.9 0.0
22/12:30pm 17.3 12.3 1.3 34 7.1 S 17 24 9 13 1023.3 - 0.0
22/12:00pm 16.6 12.8 1.9 37 6.6 SSE 11 17 6 9 1023.9 1024.0 0.0
22/11:30am 16.4 12.1 1.3 36 6.7 S 13 17 7 9 1024.5 - 0.0
22/11:00am 15.7 12.5 3.2 43 5.7 S 9 15 5 8 1024.9 1025.0 0.0
22/10:30am 14.7 12.7 4.4 50 4.8 WSW 4 7 2 4 1025.0 - 0.0
22/10:00am 13.4 12.1 4.0 53 4.3 CALM 0 0 0 0 1025.0 1025.1 0.0
22/09:30am 11.1 9.2 2.9 57 3.6 S 2 7 1 4 1024.9 - 0.0
22/09:00am 9.3 5.6 2.2 61 3.0 S 11 11 6 6 1024.7 1024.8 0.0
22/08:30am 7.3 3.8 1.4 66 2.4 S 9 11 5 6 1024.4 - 0.0
22/08:00am 4.7 0.2 -0.3 70 1.9 S 13 13 7 7 1024.2 1024.3 0.0
22/07:30am 4.0 -0.5 -0.6 72 1.7 S 13 13 7 7 1023.8 - 0.0
22/07:00am 5.1 0.3 0.5 72 1.8 S 15 15 8 8 1023.6 1023.7 0.0
22/06:30am 5.2 0.4 0.2 70 1.9 S 15 17 8 9 1023.0 - 0.0
22/06:00am 5.2 0.8 0.2 70 1.9 S 13 15 7 8 1022.6 1022.8 0.0
22/05:30am 5.3 0.8 -0.1 68 2.1 S 13 13 7 7 1022.3 - 0.0
22/05:00am 4.9 0.3 -0.9 66 2.2 S 13 17 7 9 1022.3 1022.5 0.0
22/04:30am 5.2 0.6 -1.3 63 2.4 S 13 15 7 8 1022.3 - 0.0
22/04:00am 5.3 1.0 -1.6 61 2.5 S 11 13 6 7 1022.3 1022.5 0.0
22/03:30am 6.2 2.4 -0.5 62 2.6 SSE 9 11 5 6 1022.3 - 0.0
22/03:00am 7.5 4.4 1.1 64 2.6 SE 7 9 4 5 1022.1 1022.3 0.0
22/02:30am 7.2 3.9 0.0 60 2.8 SE 7 9 4 5 1022.1 - 0.0
22/02:00am 6.9 3.1 -0.8 58 2.9 SSE 9 11 5 6 1022.1 1022.3 0.0
22/01:30am 7.2 3.7 -1.0 56 3.1 SSE 7 9 4 5 1022.1 - 0.0
22/01:00am 9.3 7.4 0.5 54 3.6 CALM 0 0 0 0 1022.2 1022.4 0.0
22/12:30am 8.8 6.9 0.5 56 3.4 CALM 0 0 0 0 1022.4 - 0.0
22/12:00am 8.6 6.4 -1.5 49 3.9 CALM 0 0 0 0 1022.3 1022.5 0.0
 
Date/Time
EST
Temp
°C
App
Temp
°C
Dew
Point
Rel
Hum
%
Delta-T
°C
Wind Press
QNH
hPa
Press
MSL
hPa
Rain
since 9 am
mm
Dir
 
Spd
km/h
Gust
km/h
Spd
kts
Gust
kts
21/11:30pm 9.4 7.4 -0.2 51 3.9 CALM 0 0 0 0 1022.5 - 0.0
21/11:00pm 9.6 6.2 -0.3 50 3.9 ESE 7 7 4 4 1022.7 1022.9 0.0

Other Formats:

Comma delimited format used in spreadsheet applications
http://www.bom.gov.au/fwo/IDN60801/IDN60801.95699.axf

JavaScript Object Notation format (JSON) in row-major order
http://www.bom.gov.au/fwo/IDN60801/IDN60801.95699.json